RYR6RS EGSS-LEAM
Flight info
| Callsign | RYR6RS |
|---|---|
| Flight time | N/A |
| Altitude | 37000 |
| Route | NUGBO M183 SILVA Q41 COWLY UT71 VAPID UN859 SITET/N0452F390 UN859 SOPIL DCT BALAN DCT LMG DCT PIMQO DCT AGN DCT ANETO N860 DOSEK |
| Aircraft | B38M/M-SADE3FGILRWY/SB1 |
Departure
| Time | 2026-05-04 18:00 |
|---|---|
| Airport | London Stansted Airport (EGSS) |
Arrival
| Time | N/A |
|---|---|
| Airport | Almería Airport (LEAM) |
| Time | Latitude | Longitude | Altitude | Speed | Heading |
|---|---|---|---|---|---|
| 2026-05-04 17:54 | 51.88968 | 0.25691 | 355 ft | 0 kts | 313° |
| 2026-05-04 17:55 | 51.88974 | 0.25681 | 362 ft | 5 kts | 313° |
| 2026-05-04 17:55 | 51.89024 | 0.25594 | 355 ft | 17 kts | 313° |
| 2026-05-04 17:55 | 51.89121 | 0.25426 | 359 ft | 22 kts | 313° |
| 2026-05-04 17:56 | 51.89166 | 0.25257 | 356 ft | 8 kts | 235° |
| 2026-05-04 17:56 | 51.89116 | 0.25186 | 355 ft | 13 kts | 222° |
| 2026-05-04 17:56 | 51.89028 | 0.25055 | 360 ft | 22 kts | 223° |
| 2026-05-04 17:56 | 51.88887 | 0.24843 | 362 ft | 32 kts | 223° |
| 2026-05-04 17:57 | 51.88711 | 0.24575 | 355 ft | 38 kts | 223° |
| 2026-05-04 17:57 | 51.88514 | 0.24284 | 351 ft | 35 kts | 223° |
| 2026-05-04 17:57 | 51.88352 | 0.24037 | 350 ft | 33 kts | 223° |
| 2026-05-04 17:57 | 51.88174 | 0.23773 | 344 ft | 37 kts | 223° |
| 2026-05-04 17:58 | 51.87987 | 0.23492 | 344 ft | 35 kts | 223° |
| 2026-05-04 17:58 | 51.87860 | 0.23297 | 348 ft | 23 kts | 224° |
| 2026-05-04 17:58 | 51.87736 | 0.23108 | 345 ft | 21 kts | 238° |
| 2026-05-04 17:58 | 51.87751 | 0.23002 | 347 ft | 9 kts | 313° |
| 2026-05-04 17:59 | 51.87809 | 0.22901 | 351 ft | 17 kts | 313° |
| 2026-05-04 17:59 | 51.87916 | 0.22714 | 334 ft | 20 kts | 313° |
| 2026-05-04 17:59 | 51.88204 | 0.23034 | 334 ft | 88 kts | 43° |
| 2026-05-04 18:00 | 51.88866 | 0.24032 | 368 ft | 167 kts | 40° |
| 2026-05-04 18:00 | 51.89797 | 0.25430 | 1186 ft | 190 kts | 41° |
| 2026-05-04 18:00 | 51.90737 | 0.26837 | 2470 ft | 196 kts | 42° |
| 2026-05-04 18:00 | 51.91798 | 0.28369 | 3746 ft | 207 kts | 39° |
| 2026-05-04 18:01 | 51.93008 | 0.29647 | 5142 ft | 211 kts | 19° |
| 2026-05-04 18:01 | 51.94525 | 0.29941 | 6038 ft | 234 kts | 347° |
| 2026-05-04 18:01 | 51.96034 | 0.28736 | 6731 ft | 260 kts | 312° |
| 2026-05-04 18:02 | 51.97089 | 0.23474 | 9770 ft | 206 kts | 279° |
| 2026-05-04 18:02 | 51.97327 | 0.21276 | 9855 ft | 195 kts | 279° |
| 2026-05-04 18:02 | 51.97567 | 0.19083 | 9440 ft | 202 kts | 279° |
| 2026-05-04 18:02 | 51.97818 | 0.16793 | 9697 ft | 212 kts | 279° |
| 2026-05-04 18:03 | 51.98088 | 0.14328 | 10172 ft | 231 kts | 279° |
| 2026-05-04 18:03 | 51.98382 | 0.11646 | 10540 ft | 251 kts | 279° |
| 2026-05-04 18:03 | 51.98698 | 0.08752 | 10890 ft | 270 kts | 279° |
| 2026-05-04 18:03 | 51.98883 | 0.05671 | 11215 ft | 288 kts | 264° |
| 2026-05-04 18:04 | 51.98481 | 0.02380 | 11577 ft | 306 kts | 258° |
| 2026-05-04 18:04 | 51.98040 | -0.01068 | 11942 ft | 315 kts | 258° |
| 2026-05-04 18:04 | 51.97153 | -0.07948 | 12193 ft | 317 kts | 258° |
| 2026-05-04 18:05 | 51.96695 | -0.11484 | 12710 ft | 321 kts | 258° |
| 2026-05-04 18:05 | 51.96238 | -0.15003 | 13962 ft | 321 kts | 258° |
| 2026-05-04 18:05 | 51.95776 | -0.18539 | 14908 ft | 329 kts | 258° |
| 2026-05-04 18:05 | 51.95298 | -0.22194 | 15853 ft | 336 kts | 257° |
| 2026-05-04 18:06 | 51.94319 | -0.29653 | 17849 ft | 345 kts | 256° |
| 2026-05-04 18:06 | 51.93816 | -0.33472 | 18698 ft | 351 kts | 256° |
| 2026-05-04 18:06 | 51.93301 | -0.37377 | 19520 ft | 356 kts | 256° |
| 2026-05-04 18:07 | 51.92780 | -0.41301 | 20378 ft | 358 kts | 256° |
| 2026-05-04 18:07 | 51.92251 | -0.45282 | 21230 ft | 362 kts | 256° |
| 2026-05-04 18:07 | 51.91725 | -0.49231 | 22068 ft | 365 kts | 256° |
| 2026-05-04 18:07 | 51.91190 | -0.53241 | 22892 ft | 368 kts | 256° |
| 2026-05-04 18:08 | 51.90637 | -0.57368 | 23695 ft | 371 kts | 255° |
| 2026-05-04 18:08 | 51.90092 | -0.61424 | 24363 ft | 374 kts | 255° |
| 2026-05-04 18:08 | 51.89535 | -0.65564 | 24984 ft | 379 kts | 255° |
| 2026-05-04 18:08 | 51.88968 | -0.69763 | 25602 ft | 383 kts | 255° |
| 2026-05-04 18:09 | 51.87815 | -0.78259 | 26798 ft | 391 kts | 256° |
| 2026-05-04 18:09 | 51.86631 | -0.86937 | 27987 ft | 399 kts | 256° |
| 2026-05-04 18:10 | 51.85997 | -0.91263 | 28530 ft | 401 kts | 250° |
| 2026-05-04 18:10 | 51.84750 | -0.95328 | 29061 ft | 402 kts | 233° |
| 2026-05-04 18:10 | 51.82825 | -0.98519 | 29607 ft | 405 kts | 216° |
| 2026-05-04 18:10 | 51.80356 | -1.00767 | 30044 ft | 410 kts | 201° |
| 2026-05-04 18:11 | 51.77603 | -1.01984 | 30619 ft | 410 kts | 192° |
| 2026-05-04 18:11 | 51.74805 | -1.02906 | 31094 ft | 413 kts | 191° |
| 2026-05-04 18:11 | 51.71966 | -1.03740 | 31494 ft | 417 kts | 190° |
| 2026-05-04 18:11 | 51.69084 | -1.04535 | 31904 ft | 421 kts | 189° |
| 2026-05-04 18:12 | 51.66187 | -1.05304 | 32032 ft | 424 kts | 189° |
| 2026-05-04 18:12 | 51.63273 | -1.06060 | 32021 ft | 422 kts | 189° |
| 2026-05-04 18:12 | 51.57453 | -1.06242 | 32004 ft | 422 kts | 179° |
| 2026-05-04 18:13 | 51.51578 | -1.05938 | 32025 ft | 421 kts | 179° |
| 2026-05-04 18:14 | 51.42823 | -1.05461 | 32021 ft | 421 kts | 179° |
| 2026-05-04 18:14 | 51.37905 | -1.05192 | 32018 ft | 421 kts | 179° |
| 2026-05-04 18:15 | 51.32077 | -1.04874 | 32575 ft | 423 kts | 178° |
| 2026-05-04 18:15 | 51.26343 | -1.04427 | 33634 ft | 423 kts | 171° |
| 2026-05-04 18:15 | 51.23563 | -1.03059 | 33960 ft | 426 kts | 156° |
| 2026-05-04 18:16 | 51.20849 | -1.01109 | 34001 ft | 425 kts | 157° |
| 2026-05-04 18:16 | 51.15493 | -0.97289 | 34011 ft | 423 kts | 156° |
| 2026-05-04 18:17 | 51.07447 | -0.91466 | 34004 ft | 424 kts | 157° |
| 2026-05-04 18:17 | 51.02093 | -0.87594 | 34363 ft | 425 kts | 157° |
| 2026-05-04 18:18 | 50.99385 | -0.85639 | 34798 ft | 426 kts | 157° |
| 2026-05-04 18:18 | 50.96692 | -0.83698 | 34986 ft | 429 kts | 157° |
| 2026-05-04 18:18 | 50.93971 | -0.81739 | 35016 ft | 428 kts | 157° |
| 2026-05-04 18:19 | 50.85886 | -0.75912 | 34986 ft | 427 kts | 154° |
| 2026-05-04 18:19 | 50.80834 | -0.70881 | 34976 ft | 430 kts | 149° |
| 2026-05-04 18:20 | 50.75796 | -0.65762 | 35006 ft | 430 kts | 149° |
| 2026-05-04 18:20 | 50.70793 | -0.60685 | 34998 ft | 430 kts | 149° |
| 2026-05-04 18:21 | 50.65740 | -0.55569 | 34989 ft | 430 kts | 149° |
| 2026-05-04 18:21 | 50.60742 | -0.50522 | 35004 ft | 431 kts | 149° |
| 2026-05-04 18:22 | 50.58221 | -0.47981 | 35353 ft | 431 kts | 149° |
| 2026-05-04 18:22 | 50.55686 | -0.45429 | 35793 ft | 432 kts | 149° |
| 2026-05-04 18:22 | 50.53147 | -0.42875 | 36196 ft | 433 kts | 149° |
| 2026-05-04 18:22 | 50.50604 | -0.40322 | 36449 ft | 437 kts | 149° |
| 2026-05-04 18:23 | 50.48049 | -0.37762 | 35980 ft | 433 kts | 149° |
| 2026-05-04 18:23 | 50.45526 | -0.35236 | 35395 ft | 429 kts | 149° |
| 2026-05-04 18:23 | 50.43048 | -0.32757 | 35075 ft | 427 kts | 149° |
| 2026-05-04 18:23 | 50.40539 | -0.30252 | 35017 ft | 426 kts | 149° |
| 2026-05-04 18:24 | 50.35536 | -0.25263 | 34989 ft | 424 kts | 149° |
| 2026-05-04 18:24 | 50.30564 | -0.20318 | 34984 ft | 424 kts | 149° |
| 2026-05-04 18:25 | 50.25583 | -0.15377 | 34992 ft | 424 kts | 150° |
| 2026-05-04 18:25 | 50.20628 | -0.10475 | 34993 ft | 424 kts | 150° |
| 2026-05-04 18:26 | 50.15651 | -0.05562 | 34997 ft | 421 kts | 150° |
| 2026-05-04 18:26 | 50.10673 | -0.00742 | 34968 ft | 419 kts | 155° |
| 2026-05-04 18:27 | 50.07942 | 0.00713 | 34994 ft | 414 kts | 168° |
| 2026-05-04 18:27 | 50.05126 | 0.01838 | 34978 ft | 418 kts | 167° |
| 2026-05-04 18:27 | 49.99538 | 0.04116 | 34985 ft | 418 kts | 167° |
| 2026-05-04 18:28 | 49.93898 | 0.06345 | 34984 ft | 417 kts | 167° |
| 2026-05-04 18:28 | 49.88269 | 0.08555 | 34989 ft | 416 kts | 167° |
| 2026-05-04 18:29 | 49.82657 | 0.10751 | 34982 ft | 416 kts | 167° |
| 2026-05-04 18:29 | 49.77068 | 0.12933 | 34991 ft | 416 kts | 167° |
| 2026-05-04 18:30 | 49.68839 | 0.16143 | 34991 ft | 415 kts | 167° |
| 2026-05-04 18:31 | 49.63299 | 0.18383 | 34993 ft | 415 kts | 167° |
| 2026-05-04 18:31 | 49.57688 | 0.20640 | 34987 ft | 415 kts | 167° |
| 2026-05-04 18:32 | 49.52139 | 0.22867 | 34996 ft | 415 kts | 167° |
| 2026-05-04 18:32 | 49.46547 | 0.25106 | 34992 ft | 413 kts | 167° |
| 2026-05-04 18:33 | 49.40995 | 0.27323 | 34994 ft | 413 kts | 167° |
| 2026-05-04 18:33 | 49.35426 | 0.29541 | 34986 ft | 413 kts | 167° |
| 2026-05-04 18:34 | 49.29884 | 0.31798 | 34988 ft | 413 kts | 166° |
| 2026-05-04 18:34 | 49.24323 | 0.34152 | 34975 ft | 413 kts | 166° |
| 2026-05-04 18:35 | 49.18806 | 0.36473 | 34959 ft | 413 kts | 166° |
| 2026-05-04 18:35 | 49.13253 | 0.38802 | 34958 ft | 413 kts | 166° |
| 2026-05-04 18:36 | 49.07721 | 0.41117 | 34965 ft | 413 kts | 167° |
| 2026-05-04 18:36 | 49.02217 | 0.43415 | 34959 ft | 411 kts | 167° |
| 2026-05-04 18:37 | 48.96683 | 0.45721 | 34947 ft | 413 kts | 167° |
| 2026-05-04 18:37 | 48.91123 | 0.48032 | 34952 ft | 414 kts | 167° |
| 2026-05-04 18:38 | 48.85590 | 0.50326 | 34956 ft | 414 kts | 167° |
| 2026-05-04 18:38 | 48.80026 | 0.52628 | 34957 ft | 414 kts | 168° |
| 2026-05-04 18:39 | 48.74479 | 0.54809 | 34960 ft | 414 kts | 168° |
| 2026-05-04 18:39 | 48.68907 | 0.56998 | 34951 ft | 413 kts | 168° |
| 2026-05-04 18:40 | 48.63333 | 0.59184 | 34950 ft | 413 kts | 168° |
| 2026-05-04 18:40 | 48.57786 | 0.61356 | 34949 ft | 411 kts | 168° |
| 2026-05-04 18:41 | 48.52249 | 0.63532 | 34948 ft | 411 kts | 168° |
| 2026-05-04 18:41 | 48.46729 | 0.65784 | 34942 ft | 411 kts | 168° |
| 2026-05-04 18:42 | 48.41237 | 0.68012 | 34943 ft | 410 kts | 168° |
| 2026-05-04 18:42 | 48.35725 | 0.70241 | 34936 ft | 410 kts | 168° |
| 2026-05-04 18:43 | 48.30230 | 0.72459 | 34929 ft | 409 kts | 168° |
| 2026-05-04 18:43 | 48.24747 | 0.74657 | 34934 ft | 409 kts | 168° |
| 2026-05-04 18:44 | 48.19227 | 0.76832 | 34928 ft | 409 kts | 168° |
| 2026-05-04 18:44 | 48.13743 | 0.78990 | 34927 ft | 408 kts | 168° |
| 2026-05-04 18:45 | 48.08250 | 0.81147 | 34928 ft | 408 kts | 168° |
| 2026-05-04 18:45 | 48.02941 | 0.83227 | 34922 ft | 408 kts | 168° |
| 2026-05-04 18:46 | 47.97442 | 0.85378 | 34905 ft | 407 kts | 168° |
| 2026-05-04 18:46 | 47.91950 | 0.87521 | 34914 ft | 407 kts | 169° |
| 2026-05-04 18:47 | 47.86469 | 0.89655 | 34922 ft | 407 kts | 168° |
| 2026-05-04 18:47 | 47.81021 | 0.91770 | 34925 ft | 407 kts | 169° |
| 2026-05-04 18:48 | 47.75534 | 0.93896 | 34916 ft | 406 kts | 168° |
| 2026-05-04 18:48 | 47.70069 | 0.96008 | 34923 ft | 406 kts | 168° |
| 2026-05-04 18:49 | 47.64608 | 0.98114 | 34919 ft | 406 kts | 168° |
| 2026-05-04 18:49 | 47.59166 | 1.00208 | 34922 ft | 406 kts | 168° |
| 2026-05-04 18:50 | 47.53737 | 1.02293 | 34917 ft | 405 kts | 168° |
| 2026-05-04 18:50 | 47.48310 | 1.04373 | 34919 ft | 404 kts | 168° |
| 2026-05-04 18:51 | 47.42835 | 1.06303 | 34913 ft | 401 kts | 177° |
| 2026-05-04 18:51 | 47.37282 | 1.06256 | 34920 ft | 399 kts | 182° |
| 2026-05-04 18:52 | 47.31722 | 1.06173 | 34924 ft | 399 kts | 182° |
| 2026-05-04 18:52 | 47.26194 | 1.06051 | 34923 ft | 399 kts | 182° |
| 2026-05-04 18:53 | 47.20635 | 1.05921 | 34920 ft | 399 kts | 182° |
| 2026-05-04 18:53 | 47.15066 | 1.05791 | 34914 ft | 399 kts | 182° |
| 2026-05-04 18:54 | 47.09529 | 1.05662 | 34919 ft | 399 kts | 182° |
| 2026-05-04 18:54 | 47.03983 | 1.05532 | 34917 ft | 399 kts | 182° |
| 2026-05-04 18:55 | 46.98429 | 1.05300 | 34921 ft | 399 kts | 183° |
| 2026-05-04 18:55 | 46.90151 | 1.04948 | 34922 ft | 399 kts | 183° |
| 2026-05-04 18:56 | 46.84613 | 1.04714 | 34917 ft | 399 kts | 183° |
| 2026-05-04 18:56 | 46.79081 | 1.04482 | 34919 ft | 399 kts | 183° |
| 2026-05-04 18:57 | 46.73542 | 1.04250 | 34918 ft | 399 kts | 183° |
| 2026-05-04 18:57 | 46.68060 | 1.04020 | 34916 ft | 399 kts | 183° |
| 2026-05-04 18:58 | 46.62535 | 1.03789 | 34914 ft | 399 kts | 183° |
| 2026-05-04 18:58 | 46.56971 | 1.03557 | 34909 ft | 399 kts | 183° |
| 2026-05-04 18:59 | 46.52353 | 1.03370 | 34905 ft | 400 kts | 182° |
| 2026-05-04 18:59 | 46.46815 | 1.03316 | 34912 ft | 400 kts | 182° |
| 2026-05-04 19:00 | 46.41311 | 1.02897 | 34927 ft | 398 kts | 187° |
| 2026-05-04 19:00 | 46.35938 | 1.02107 | 34916 ft | 399 kts | 186° |
| 2026-05-04 19:01 | 46.30419 | 1.01355 | 34908 ft | 398 kts | 186° |
| 2026-05-04 19:01 | 46.24923 | 1.00616 | 34916 ft | 398 kts | 186° |
| 2026-05-04 19:02 | 46.19392 | 0.99876 | 34911 ft | 398 kts | 186° |
| 2026-05-04 19:02 | 46.13867 | 0.99138 | 34924 ft | 397 kts | 186° |
| 2026-05-04 19:03 | 46.08415 | 0.98412 | 34913 ft | 396 kts | 186° |
| 2026-05-04 19:03 | 46.02921 | 0.97681 | 34913 ft | 396 kts | 186° |
| 2026-05-04 19:04 | 45.97418 | 0.96951 | 34913 ft | 396 kts | 186° |
| 2026-05-04 19:04 | 45.91968 | 0.96229 | 34913 ft | 395 kts | 186° |
| 2026-05-04 19:05 | 45.86500 | 0.95506 | 34913 ft | 395 kts | 186° |
| 2026-05-04 19:05 | 45.81026 | 0.94784 | 34917 ft | 395 kts | 186° |
| 2026-05-04 19:06 | 45.75587 | 0.94068 | 34916 ft | 395 kts | 186° |
| 2026-05-04 19:06 | 45.70114 | 0.93349 | 34911 ft | 395 kts | 186° |
| 2026-05-04 19:07 | 45.64635 | 0.92630 | 34911 ft | 395 kts | 186° |
| 2026-05-04 19:07 | 45.59156 | 0.91912 | 34908 ft | 395 kts | 186° |
| 2026-05-04 19:08 | 45.53715 | 0.91202 | 34912 ft | 396 kts | 186° |
| 2026-05-04 19:08 | 45.48215 | 0.90484 | 34913 ft | 396 kts | 186° |
| 2026-05-04 19:09 | 45.42728 | 0.89770 | 34927 ft | 396 kts | 186° |
| 2026-05-04 19:09 | 45.37236 | 0.89057 | 34926 ft | 396 kts | 186° |
| 2026-05-04 19:10 | 45.31767 | 0.88348 | 34933 ft | 396 kts | 186° |
| 2026-05-04 19:10 | 45.26264 | 0.87636 | 34938 ft | 396 kts | 186° |
| 2026-05-04 19:11 | 45.20770 | 0.86926 | 34935 ft | 396 kts | 186° |
| 2026-05-04 19:11 | 45.15259 | 0.86216 | 34934 ft | 397 kts | 186° |
| 2026-05-04 19:12 | 45.07007 | 0.85155 | 34934 ft | 397 kts | 186° |
| 2026-05-04 19:13 | 45.01530 | 0.84453 | 34931 ft | 397 kts | 186° |
| 2026-05-04 19:13 | 44.96013 | 0.83746 | 34923 ft | 398 kts | 186° |
| 2026-05-04 19:14 | 44.90511 | 0.83044 | 34929 ft | 399 kts | 186° |
| 2026-05-04 19:14 | 44.84986 | 0.82339 | 34928 ft | 399 kts | 186° |
| 2026-05-04 19:15 | 44.79461 | 0.81636 | 34933 ft | 399 kts | 186° |
| 2026-05-04 19:15 | 44.74016 | 0.80944 | 34931 ft | 399 kts | 186° |
| 2026-05-04 19:16 | 44.68475 | 0.80241 | 34934 ft | 399 kts | 186° |
| 2026-05-04 19:16 | 44.62991 | 0.79547 | 34931 ft | 399 kts | 186° |
| 2026-05-04 19:17 | 44.57448 | 0.78847 | 34931 ft | 400 kts | 186° |
| 2026-05-04 19:17 | 44.51891 | 0.78147 | 34931 ft | 401 kts | 186° |
| 2026-05-04 19:18 | 44.46325 | 0.77446 | 34934 ft | 401 kts | 186° |
| 2026-05-04 19:18 | 44.40785 | 0.76751 | 34922 ft | 401 kts | 186° |
| 2026-05-04 19:19 | 44.35206 | 0.76051 | 34952 ft | 405 kts | 186° |
| 2026-05-04 19:19 | 44.29584 | 0.75348 | 34957 ft | 405 kts | 186° |
| 2026-05-04 19:20 | 44.23996 | 0.74650 | 34962 ft | 405 kts | 186° |
| 2026-05-04 19:20 | 44.18380 | 0.73950 | 34962 ft | 406 kts | 187° |
| 2026-05-04 19:21 | 44.12754 | 0.73251 | 34960 ft | 406 kts | 187° |
| 2026-05-04 19:21 | 44.07123 | 0.72552 | 34965 ft | 406 kts | 187° |
| 2026-05-04 19:22 | 44.01525 | 0.71858 | 34954 ft | 406 kts | 187° |